sensor_id;sensor_type;location;lat;lon;timestamp;P1;durP1;ratioP1;P2;durP2;ratioP2
52458;SDS011;38372;52.902;6.024;2023-07-29T00:00:49;3.65;;;2.00;;
52458;SDS011;38372;52.902;6.024;2023-07-29T00:03:15;3.33;;;2.17;;
52458;SDS011;38372;52.902;6.024;2023-07-29T00:05:40;4.72;;;1.90;;
52458;SDS011;38372;52.902;6.024;2023-07-29T00:08:06;2.67;;;1.50;;
52458;SDS011;38372;52.902;6.024;2023-07-29T00:10:33;4.25;;;1.85;;
52458;SDS011;38372;52.902;6.024;2023-07-29T00:13:01;4.03;;;2.00;;
52458;SDS011;38372;52.902;6.024;2023-07-29T00:15:27;4.18;;;1.67;;
52458;SDS011;38372;52.902;6.024;2023-07-29T00:17:53;7.38;;;2.47;;
52458;SDS011;38372;52.902;6.024;2023-07-29T00:20:19;3.35;;;1.75;;
52458;SDS011;38372;52.902;6.024;2023-07-29T00:22:45;3.63;;;1.80;;
52458;SDS011;38372;52.902;6.024;2023-07-29T00:25:10;3.13;;;1.55;;
52458;SDS011;38372;52.902;6.024;2023-07-29T00:27:36;3.38;;;1.67;;
52458;SDS011;38372;52.902;6.024;2023-07-29T00:30:02;5.88;;;1.25;;
52458;SDS011;38372;52.902;6.024;2023-07-29T00:32:29;3.13;;;1.73;;
52458;SDS011;38372;52.902;6.024;2023-07-29T00:34:55;5.15;;;2.20;;
52458;SDS011;38372;52.902;6.024;2023-07-29T00:37:21;4.13;;;1.67;;
52458;SDS011;38372;52.902;6.024;2023-07-29T00:39:47;2.83;;;1.60;;
52458;SDS011;38372;52.902;6.024;2023-07-29T00:42:12;2.88;;;1.60;;
52458;SDS011;38372;52.902;6.024;2023-07-29T00:44:38;3.00;;;1.80;;
52458;SDS011;38372;52.902;6.024;2023-07-29T00:47:04;7.55;;;2.35;;
52458;SDS011;38372;52.902;6.024;2023-07-29T00:49:32;3.47;;;1.58;;
52458;SDS011;38372;52.902;6.024;2023-07-29T00:51:58;4.55;;;1.83;;
52458;SDS011;38372;52.902;6.024;2023-07-29T00:54:24;3.22;;;1.67;;
52458;SDS011;38372;52.902;6.024;2023-07-29T00:56:49;4.20;;;1.98;;
52458;SDS011;38372;52.902;6.024;2023-07-29T00:59:16;4.00;;;2.00;;
52458;SDS011;38372;52.902;6.024;2023-07-29T01:01:42;3.72;;;1.63;;
52458;SDS011;38372;52.902;6.024;2023-07-29T01:04:08;2.65;;;1.55;;
52458;SDS011;38372;52.902;6.024;2023-07-29T01:12:16;3.80;;;1.80;;
52458;SDS011;38372;52.902;6.024;2023-07-29T01:18:05;4.20;;;2.08;;
52458;SDS011;38372;52.902;6.024;2023-07-29T01:20:37;3.95;;;1.67;;
52458;SDS011;38372;52.902;6.024;2023-07-29T01:23:07;2.58;;;1.42;;
52458;SDS011;38372;52.902;6.024;2023-07-29T01:25:33;3.47;;;2.00;;
52458;SDS011;38372;52.902;6.024;2023-07-29T01:27:58;3.25;;;1.25;;
52458;SDS011;38372;52.902;6.024;2023-07-29T01:30:26;4.40;;;1.92;;
52458;SDS011;38372;52.902;6.024;2023-07-29T01:35:46;4.15;;;1.85;;
52458;SDS011;38372;52.902;6.024;2023-07-29T01:40:56;3.65;;;1.70;;
52458;SDS011;38372;52.902;6.024;2023-07-29T01:43:26;4.25;;;1.95;;
52458;SDS011;38372;52.902;6.024;2023-07-29T01:45:53;4.88;;;2.10;;
52458;SDS011;38372;52.902;6.024;2023-07-29T01:48:19;4.60;;;2.30;;
52458;SDS011;38372;52.902;6.024;2023-07-29T01:50:45;3.47;;;1.95;;
52458;SDS011;38372;52.902;6.024;2023-07-29T01:53:11;3.65;;;1.95;;
52458;SDS011;38372;52.902;6.024;2023-07-29T01:55:36;4.78;;;2.05;;
52458;SDS011;38372;52.902;6.024;2023-07-29T01:58:02;3.83;;;1.35;;
52458;SDS011;38372;52.902;6.024;2023-07-29T02:00:28;3.20;;;1.58;;
52458;SDS011;38372;52.902;6.024;2023-07-29T02:02:54;5.28;;;1.95;;
52458;SDS011;38372;52.902;6.024;2023-07-29T02:05:19;3.15;;;1.42;;
52458;SDS011;38372;52.902;6.024;2023-07-29T02:07:45;4.40;;;1.42;;
52458;SDS011;38372;52.902;6.024;2023-07-29T02:10:11;2.95;;;1.48;;
52458;SDS011;38372;52.902;6.024;2023-07-29T02:12:37;3.35;;;1.63;;
52458;SDS011;38372;52.902;6.024;2023-07-29T02:15:03;3.67;;;1.40;;
52458;SDS011;38372;52.902;6.024;2023-07-29T02:17:30;4.38;;;1.55;;
52458;SDS011;38372;52.902;6.024;2023-07-29T02:19:55;5.22;;;1.60;;
52458;SDS011;38372;52.902;6.024;2023-07-29T02:22:21;3.15;;;1.50;;
52458;SDS011;38372;52.902;6.024;2023-07-29T02:24:47;3.65;;;1.83;;
52458;SDS011;38372;52.902;6.024;2023-07-29T02:27:13;4.90;;;1.40;;
52458;SDS011;38372;52.902;6.024;2023-07-29T02:29:39;4.03;;;1.98;;
52458;SDS011;38372;52.902;6.024;2023-07-29T02:32:05;5.10;;;1.58;;
52458;SDS011;38372;52.902;6.024;2023-07-29T02:34:31;2.58;;;1.30;;
52458;SDS011;38372;52.902;6.024;2023-07-29T02:36:57;2.65;;;1.25;;
52458;SDS011;38372;52.902;6.024;2023-07-29T02:39:23;2.50;;;1.30;;
52458;SDS011;38372;52.902;6.024;2023-07-29T02:41:49;2.05;;;1.10;;
52458;SDS011;38372;52.902;6.024;2023-07-29T02:44:15;3.83;;;1.15;;
52458;SDS011;38372;52.902;6.024;2023-07-29T02:46:41;3.30;;;1.08;;
52458;SDS011;38372;52.902;6.024;2023-07-29T02:49:07;3.80;;;1.10;;
52458;SDS011;38372;52.902;6.024;2023-07-29T02:51:32;4.07;;;1.38;;
52458;SDS011;38372;52.902;6.024;2023-07-29T02:53:58;2.13;;;1.08;;
52458;SDS011;38372;52.902;6.024;2023-07-29T02:56:24;2.78;;;1.15;;
52458;SDS011;38372;52.902;6.024;2023-07-29T02:58:50;2.83;;;1.08;;
52458;SDS011;38372;52.902;6.024;2023-07-29T03:01:18;2.60;;;1.30;;
52458;SDS011;38372;52.902;6.024;2023-07-29T03:03:44;2.78;;;1.23;;
52458;SDS011;38372;52.902;6.024;2023-07-29T03:06:10;1.17;;;0.60;;
52458;SDS011;38372;52.902;6.024;2023-07-29T03:08:38;2.05;;;1.10;;
52458;SDS011;38372;52.902;6.024;2023-07-29T03:11:13;4.75;;;1.02;;
52458;SDS011;38372;52.902;6.024;2023-07-29T03:13:40;2.15;;;0.82;;
52458;SDS011;38372;52.902;6.024;2023-07-29T03:18:42;1.98;;;0.85;;
52458;SDS011;38372;52.902;6.024;2023-07-29T03:21:09;0.82;;;0.40;;
52458;SDS011;38372;52.902;6.024;2023-07-29T03:23:35;1.67;;;1.02;;
52458;SDS011;38372;52.902;6.024;2023-07-29T03:26:03;3.75;;;1.05;;
52458;SDS011;38372;52.902;6.024;2023-07-29T03:28:36;1.67;;;0.75;;
52458;SDS011;38372;52.902;6.024;2023-07-29T03:31:06;1.70;;;0.60;;
52458;SDS011;38372;52.902;6.024;2023-07-29T03:33:32;1.00;;;0.52;;
52458;SDS011;38372;52.902;6.024;2023-07-29T03:35:58;1.38;;;0.65;;
52458;SDS011;38372;52.902;6.024;2023-07-29T03:38:23;1.90;;;0.98;;
52458;SDS011;38372;52.902;6.024;2023-07-29T03:40:50;1.25;;;0.60;;
52458;SDS011;38372;52.902;6.024;2023-07-29T03:43:16;1.00;;;0.50;;
52458;SDS011;38372;52.902;6.024;2023-07-29T03:45:41;1.83;;;0.82;;
52458;SDS011;38372;52.902;6.024;2023-07-29T03:48:07;1.38;;;0.70;;
52458;SDS011;38372;52.902;6.024;2023-07-29T03:50:34;1.75;;;0.45;;
52458;SDS011;38372;52.902;6.024;2023-07-29T03:53:01;1.15;;;0.50;;
52458;SDS011;38372;52.902;6.024;2023-07-29T03:55:27;2.72;;;0.70;;
52458;SDS011;38372;52.902;6.024;2023-07-29T03:57:55;0.95;;;0.50;;
52458;SDS011;38372;52.902;6.024;2023-07-29T04:02:50;0.93;;;0.40;;
52458;SDS011;38372;52.902;6.024;2023-07-29T04:05:16;2.40;;;0.85;;
52458;SDS011;38372;52.902;6.024;2023-07-29T04:07:42;2.35;;;0.75;;
52458;SDS011;38372;52.902;6.024;2023-07-29T04:10:08;1.23;;;0.60;;
52458;SDS011;38372;52.902;6.024;2023-07-29T04:12:34;1.25;;;0.55;;
52458;SDS011;38372;52.902;6.024;2023-07-29T04:15:00;1.70;;;0.80;;
52458;SDS011;38372;52.902;6.024;2023-07-29T04:17:25;1.88;;;0.90;;
52458;SDS011;38372;52.902;6.024;2023-07-29T04:19:51;3.03;;;0.70;;
52458;SDS011;38372;52.902;6.024;2023-07-29T04:22:17;1.55;;;0.70;;
52458;SDS011;38372;52.902;6.024;2023-07-29T04:24:43;2.17;;;0.98;;
52458;SDS011;38372;52.902;6.024;2023-07-29T04:27:08;2.47;;;0.82;;
52458;SDS011;38372;52.902;6.024;2023-07-29T04:29:34;1.20;;;0.70;;
52458;SDS011;38372;52.902;6.024;2023-07-29T04:32:03;2.10;;;0.77;;
52458;SDS011;38372;52.902;6.024;2023-07-29T04:34:29;2.90;;;0.65;;
52458;SDS011;38372;52.902;6.024;2023-07-29T04:36:55;1.00;;;0.63;;
52458;SDS011;38372;52.902;6.024;2023-07-29T04:39:20;2.35;;;0.95;;
52458;SDS011;38372;52.902;6.024;2023-07-29T04:41:46;0.55;;;0.40;;
52458;SDS011;38372;52.902;6.024;2023-07-29T04:44:12;1.17;;;0.57;;
52458;SDS011;38372;52.902;6.024;2023-07-29T04:46:38;0.90;;;0.40;;
52458;SDS011;38372;52.902;6.024;2023-07-29T04:49:04;2.50;;;0.68;;
52458;SDS011;38372;52.902;6.024;2023-07-29T04:51:30;1.38;;;0.50;;
52458;SDS011;38372;52.902;6.024;2023-07-29T04:53:57;1.27;;;0.70;;
52458;SDS011;38372;52.902;6.024;2023-07-29T04:56:23;0.70;;;0.45;;
52458;SDS011;38372;52.902;6.024;2023-07-29T04:58:49;1.52;;;0.52;;
52458;SDS011;38372;52.902;6.024;2023-07-29T05:01:14;1.33;;;0.50;;
52458;SDS011;38372;52.902;6.024;2023-07-29T05:03:40;1.63;;;0.65;;
52458;SDS011;38372;52.902;6.024;2023-07-29T05:06:06;3.17;;;1.00;;
52458;SDS011;38372;52.902;6.024;2023-07-29T05:08:32;1.02;;;0.40;;
52458;SDS011;38372;52.902;6.024;2023-07-29T05:10:57;1.95;;;0.80;;
52458;SDS011;38372;52.902;6.024;2023-07-29T05:13:23;1.45;;;0.43;;
52458;SDS011;38372;52.902;6.024;2023-07-29T05:15:49;1.90;;;0.73;;
52458;SDS011;38372;52.902;6.024;2023-07-29T05:18:15;4.68;;;1.10;;
52458;SDS011;38372;52.902;6.024;2023-07-29T05:20:41;1.15;;;0.63;;
52458;SDS011;38372;52.902;6.024;2023-07-29T05:23:07;2.17;;;0.50;;
52458;SDS011;38372;52.902;6.024;2023-07-29T05:25:33;1.83;;;0.40;;
52458;SDS011;38372;52.902;6.024;2023-07-29T05:28:02;1.65;;;0.45;;
52458;SDS011;38372;52.902;6.024;2023-07-29T05:30:28;3.85;;;0.52;;
52458;SDS011;38372;52.902;6.024;2023-07-29T05:33:00;1.27;;;0.65;;
52458;SDS011;38372;52.902;6.024;2023-07-29T05:35:25;1.02;;;0.43;;
52458;SDS011;38372;52.902;6.024;2023-07-29T05:37:51;1.45;;;0.75;;
52458;SDS011;38372;52.902;6.024;2023-07-29T05:40:17;1.15;;;0.45;;
52458;SDS011;38372;52.902;6.024;2023-07-29T05:42:43;1.00;;;0.30;;
52458;SDS011;38372;52.902;6.024;2023-07-29T05:45:10;1.20;;;0.50;;
52458;SDS011;38372;52.902;6.024;2023-07-29T05:47:36;1.38;;;0.47;;
52458;SDS011;38372;52.902;6.024;2023-07-29T05:50:03;1.20;;;0.60;;
52458;SDS011;38372;52.902;6.024;2023-07-29T05:52:32;1.05;;;0.60;;
52458;SDS011;38372;52.902;6.024;2023-07-29T05:54:58;1.75;;;0.52;;
52458;SDS011;38372;52.902;6.024;2023-07-29T05:57:24;0.80;;;0.47;;
52458;SDS011;38372;52.902;6.024;2023-07-29T05:59:50;1.40;;;0.43;;
52458;SDS011;38372;52.902;6.024;2023-07-29T06:02:16;0.57;;;0.40;;
52458;SDS011;38372;52.902;6.024;2023-07-29T06:04:41;2.08;;;0.95;;
52458;SDS011;38372;52.902;6.024;2023-07-29T06:07:07;1.48;;;0.77;;
52458;SDS011;38372;52.902;6.024;2023-07-29T06:09:33;3.08;;;0.68;;
52458;SDS011;38372;52.902;6.024;2023-07-29T06:11:58;1.35;;;0.60;;
52458;SDS011;38372;52.902;6.024;2023-07-29T06:14:24;2.67;;;0.90;;
52458;SDS011;38372;52.902;6.024;2023-07-29T06:16:51;2.45;;;0.68;;
52458;SDS011;38372;52.902;6.024;2023-07-29T06:19:17;1.08;;;0.75;;
52458;SDS011;38372;52.902;6.024;2023-07-29T06:21:45;1.23;;;0.70;;
52458;SDS011;38372;52.902;6.024;2023-07-29T06:24:10;1.33;;;0.70;;
52458;SDS011;38372;52.902;6.024;2023-07-29T06:26:36;1.70;;;0.60;;
52458;SDS011;38372;52.902;6.024;2023-07-29T06:29:02;1.33;;;0.70;;
52458;SDS011;38372;52.902;6.024;2023-07-29T06:31:28;4.68;;;1.23;;
52458;SDS011;38372;52.902;6.024;2023-07-29T06:33:54;4.50;;;1.00;;
52458;SDS011;38372;52.902;6.024;2023-07-29T06:36:20;2.15;;;0.80;;
52458;SDS011;38372;52.902;6.024;2023-07-29T06:38:46;2.22;;;0.73;;
52458;SDS011;38372;52.902;6.024;2023-07-29T06:41:12;4.18;;;0.88;;
52458;SDS011;38372;52.902;6.024;2023-07-29T06:43:38;1.88;;;1.02;;
52458;SDS011;38372;52.902;6.024;2023-07-29T06:46:03;2.47;;;1.23;;
52458;SDS011;38372;52.902;6.024;2023-07-29T06:48:29;1.58;;;0.70;;
52458;SDS011;38372;52.902;6.024;2023-07-29T06:50:55;2.90;;;0.70;;
52458;SDS011;38372;52.902;6.024;2023-07-29T06:53:25;2.03;;;1.00;;
52458;SDS011;38372;52.902;6.024;2023-07-29T06:55:54;3.00;;;0.95;;
52458;SDS011;38372;52.902;6.024;2023-07-29T06:58:20;2.95;;;0.98;;
52458;SDS011;38372;52.902;6.024;2023-07-29T07:00:46;3.05;;;1.23;;
52458;SDS011;38372;52.902;6.024;2023-07-29T07:03:11;1.52;;;0.82;;
52458;SDS011;38372;52.902;6.024;2023-07-29T07:05:37;4.05;;;0.95;;
52458;SDS011;38372;52.902;6.024;2023-07-29T07:08:03;1.17;;;0.50;;
52458;SDS011;38372;52.902;6.024;2023-07-29T07:10:29;1.88;;;0.80;;
52458;SDS011;38372;52.902;6.024;2023-07-29T07:12:54;3.00;;;0.52;;
52458;SDS011;38372;52.902;6.024;2023-07-29T07:15:20;1.58;;;0.65;;
52458;SDS011;38372;52.902;6.024;2023-07-29T07:17:46;3.15;;;1.10;;
52458;SDS011;38372;52.902;6.024;2023-07-29T07:20:12;1.65;;;0.80;;
52458;SDS011;38372;52.902;6.024;2023-07-29T07:22:38;2.45;;;0.80;;
52458;SDS011;38372;52.902;6.024;2023-07-29T07:25:04;4.32;;;1.13;;
52458;SDS011;38372;52.902;6.024;2023-07-29T07:27:30;1.25;;;0.80;;
52458;SDS011;38372;52.902;6.024;2023-07-29T07:29:56;3.05;;;1.20;;
52458;SDS011;38372;52.902;6.024;2023-07-29T07:32:21;1.55;;;0.90;;
52458;SDS011;38372;52.902;6.024;2023-07-29T07:34:47;1.60;;;0.90;;
52458;SDS011;38372;52.902;6.024;2023-07-29T07:37:13;1.25;;;0.90;;
52458;SDS011;38372;52.902;6.024;2023-07-29T07:39:39;1.17;;;0.75;;
52458;SDS011;38372;52.902;6.024;2023-07-29T07:42:05;2.30;;;0.73;;
52458;SDS011;38372;52.902;6.024;2023-07-29T07:44:31;1.55;;;0.80;;
52458;SDS011;38372;52.902;6.024;2023-07-29T07:46:56;2.45;;;0.80;;
52458;SDS011;38372;52.902;6.024;2023-07-29T07:49:22;3.42;;;0.70;;
52458;SDS011;38372;52.902;6.024;2023-07-29T07:51:48;1.55;;;0.73;;
52458;SDS011;38372;52.902;6.024;2023-07-29T07:54:14;0.68;;;0.50;;
52458;SDS011;38372;52.902;6.024;2023-07-29T07:56:40;4.85;;;0.60;;
52458;SDS011;38372;52.902;6.024;2023-07-29T07:59:05;3.53;;;0.88;;
52458;SDS011;38372;52.902;6.024;2023-07-29T08:01:37;1.67;;;0.80;;
52458;SDS011;38372;52.902;6.024;2023-07-29T08:04:04;1.80;;;0.73;;
52458;SDS011;38372;52.902;6.024;2023-07-29T08:06:30;1.23;;;0.77;;
52458;SDS011;38372;52.902;6.024;2023-07-29T08:08:57;1.20;;;0.70;;
52458;SDS011;38372;52.902;6.024;2023-07-29T08:11:23;4.68;;;1.13;;
52458;SDS011;38372;52.902;6.024;2023-07-29T08:13:48;2.38;;;0.68;;
52458;SDS011;38372;52.902;6.024;2023-07-29T08:16:14;2.22;;;0.98;;
52458;SDS011;38372;52.902;6.024;2023-07-29T08:18:40;2.33;;;1.05;;
52458;SDS011;38372;52.902;6.024;2023-07-29T08:21:06;2.10;;;1.02;;
52458;SDS011;38372;52.902;6.024;2023-07-29T08:23:32;2.00;;;0.95;;
52458;SDS011;38372;52.902;6.024;2023-07-29T08:26:00;1.88;;;0.77;;
52458;SDS011;38372;52.902;6.024;2023-07-29T08:28:28;3.00;;;0.70;;
52458;SDS011;38372;52.902;6.024;2023-07-29T08:30:54;1.83;;;0.60;;
52458;SDS011;38372;52.902;6.024;2023-07-29T08:33:20;1.33;;;0.85;;
52458;SDS011;38372;52.902;6.024;2023-07-29T08:35:46;1.23;;;0.73;;
52458;SDS011;38372;52.902;6.024;2023-07-29T08:38:11;1.80;;;0.70;;
52458;SDS011;38372;52.902;6.024;2023-07-29T08:40:37;0.82;;;0.40;;
52458;SDS011;38372;52.902;6.024;2023-07-29T08:43:10;1.70;;;0.70;;
52458;SDS011;38372;52.902;6.024;2023-07-29T08:45:37;1.27;;;0.65;;
52458;SDS011;38372;52.902;6.024;2023-07-29T08:48:07;1.08;;;0.50;;
52458;SDS011;38372;52.902;6.024;2023-07-29T08:50:35;0.77;;;0.35;;
52458;SDS011;38372;52.902;6.024;2023-07-29T08:53:05;2.05;;;0.40;;
52458;SDS011;38372;52.902;6.024;2023-07-29T08:55:32;1.38;;;0.75;;
52458;SDS011;38372;52.902;6.024;2023-07-29T08:57:59;1.42;;;0.63;;
52458;SDS011;38372;52.902;6.024;2023-07-29T09:00:25;1.42;;;0.77;;
52458;SDS011;38372;52.902;6.024;2023-07-29T09:02:52;1.40;;;0.77;;
52458;SDS011;38372;52.902;6.024;2023-07-29T09:05:20;1.30;;;0.77;;
52458;SDS011;38372;52.902;6.024;2023-07-29T09:07:46;1.92;;;0.80;;
52458;SDS011;38372;52.902;6.024;2023-07-29T09:10:13;3.38;;;0.80;;
52458;SDS011;38372;52.902;6.024;2023-07-29T09:12:39;1.30;;;0.60;;
52458;SDS011;38372;52.902;6.024;2023-07-29T09:15:06;1.95;;;0.50;;
52458;SDS011;38372;52.902;6.024;2023-07-29T09:17:35;2.22;;;0.80;;
52458;SDS011;38372;52.902;6.024;2023-07-29T09:20:01;1.27;;;0.55;;
52458;SDS011;38372;52.902;6.024;2023-07-29T09:22:27;2.72;;;0.73;;
52458;SDS011;38372;52.902;6.024;2023-07-29T09:24:53;3.53;;;0.77;;
52458;SDS011;38372;52.902;6.024;2023-07-29T09:27:25;1.55;;;0.80;;
52458;SDS011;38372;52.902;6.024;2023-07-29T09:29:52;1.83;;;0.57;;
52458;SDS011;38372;52.902;6.024;2023-07-29T09:32:19;4.18;;;0.77;;
52458;SDS011;38372;52.902;6.024;2023-07-29T09:34:46;2.70;;;0.77;;
52458;SDS011;38372;52.902;6.024;2023-07-29T09:37:16;2.33;;;0.57;;
52458;SDS011;38372;52.902;6.024;2023-07-29T09:39:46;0.95;;;0.60;;
52458;SDS011;38372;52.902;6.024;2023-07-29T09:42:19;3.88;;;0.60;;
52458;SDS011;38372;52.902;6.024;2023-07-29T09:44:47;0.43;;;0.40;;
52458;SDS011;38372;52.902;6.024;2023-07-29T09:47:19;0.90;;;0.50;;
52458;SDS011;38372;52.902;6.024;2023-07-29T09:49:50;2.88;;;0.68;;
52458;SDS011;38372;52.902;6.024;2023-07-29T09:52:19;1.77;;;0.98;;
52458;SDS011;38372;52.902;6.024;2023-07-29T09:54:47;1.25;;;0.55;;
52458;SDS011;38372;52.902;6.024;2023-07-29T09:57:17;0.75;;;0.60;;
52458;SDS011;38372;52.902;6.024;2023-07-29T09:59:56;1.10;;;0.65;;
52458;SDS011;38372;52.902;6.024;2023-07-29T10:02:22;3.03;;;0.40;;
52458;SDS011;38372;52.902;6.024;2023-07-29T10:04:51;1.75;;;0.73;;
52458;SDS011;38372;52.902;6.024;2023-07-29T10:07:17;0.55;;;0.32;;
52458;SDS011;38372;52.902;6.024;2023-07-29T10:09:45;0.47;;;0.30;;
52458;SDS011;38372;52.902;6.024;2023-07-29T10:12:11;0.88;;;0.35;;
52458;SDS011;38372;52.902;6.024;2023-07-29T10:14:37;2.92;;;0.40;;
52458;SDS011;38372;52.902;6.024;2023-07-29T10:17:04;0.70;;;0.40;;
52458;SDS011;38372;52.902;6.024;2023-07-29T10:19:31;1.23;;;0.40;;
52458;SDS011;38372;52.902;6.024;2023-07-29T10:21:58;1.73;;;0.85;;
52458;SDS011;38372;52.902;6.024;2023-07-29T10:24:29;1.10;;;0.32;;
52458;SDS011;38372;52.902;6.024;2023-07-29T10:26:57;3.25;;;0.45;;
52458;SDS011;38372;52.902;6.024;2023-07-29T10:29:24;0.40;;;0.20;;
52458;SDS011;38372;52.902;6.024;2023-07-29T10:31:57;0.40;;;0.30;;
52458;SDS011;38372;52.902;6.024;2023-07-29T10:34:26;1.60;;;0.57;;
52458;SDS011;38372;52.902;6.024;2023-07-29T10:36:52;0.90;;;0.40;;
52458;SDS011;38372;52.902;6.024;2023-07-29T10:39:19;1.38;;;0.47;;
52458;SDS011;38372;52.902;6.024;2023-07-29T10:47:14;3.38;;;0.52;;
52458;SDS011;38372;52.902;6.024;2023-07-29T10:49:49;2.40;;;0.57;;
52458;SDS011;38372;52.902;6.024;2023-07-29T10:55:02;3.10;;;0.63;;
52458;SDS011;38372;52.902;6.024;2023-07-29T10:57:32;0.85;;;0.40;;
52458;SDS011;38372;52.902;6.024;2023-07-29T11:00:04;2.58;;;1.17;;
52458;SDS011;38372;52.902;6.024;2023-07-29T11:02:31;1.13;;;0.60;;
52458;SDS011;38372;52.902;6.024;2023-07-29T11:04:59;1.55;;;0.70;;
52458;SDS011;38372;52.902;6.024;2023-07-29T11:07:44;2.25;;;0.98;;
52458;SDS011;38372;52.902;6.024;2023-07-29T11:10:14;1.00;;;0.73;;
52458;SDS011;38372;52.902;6.024;2023-07-29T11:12:49;1.45;;;0.63;;
52458;SDS011;38372;52.902;6.024;2023-07-29T11:15:20;3.10;;;0.70;;
52458;SDS011;38372;52.902;6.024;2023-07-29T11:20:24;1.85;;;0.68;;
52458;SDS011;38372;52.902;6.024;2023-07-29T11:22:55;1.50;;;0.85;;
52458;SDS011;38372;52.902;6.024;2023-07-29T11:25:23;0.73;;;0.43;;
52458;SDS011;38372;52.902;6.024;2023-07-29T11:27:53;1.08;;;0.60;;
52458;SDS011;38372;52.902;6.024;2023-07-29T11:30:20;1.10;;;0.50;;
52458;SDS011;38372;52.902;6.024;2023-07-29T11:32:48;1.00;;;0.47;;
52458;SDS011;38372;52.902;6.024;2023-07-29T11:35:15;2.15;;;1.30;;
52458;SDS011;38372;52.902;6.024;2023-07-29T11:37:46;1.88;;;0.75;;
52458;SDS011;38372;52.902;6.024;2023-07-29T11:40:13;4.10;;;0.90;;
52458;SDS011;38372;52.902;6.024;2023-07-29T11:42:44;1.65;;;0.57;;
52458;SDS011;38372;52.902;6.024;2023-07-29T11:45:11;2.05;;;0.80;;
52458;SDS011;38372;52.902;6.024;2023-07-29T11:47:37;3.53;;;0.77;;
52458;SDS011;38372;52.902;6.024;2023-07-29T11:50:07;3.72;;;0.50;;
52458;SDS011;38372;52.902;6.024;2023-07-29T11:52:35;2.78;;;0.85;;
52458;SDS011;38372;52.902;6.024;2023-07-29T11:55:02;3.13;;;0.98;;
52458;SDS011;38372;52.902;6.024;2023-07-29T11:57:38;2.63;;;0.60;;
52458;SDS011;38372;52.902;6.024;2023-07-29T12:00:08;1.90;;;0.50;;
52458;SDS011;38372;52.902;6.024;2023-07-29T12:02:37;1.20;;;0.60;;
52458;SDS011;38372;52.902;6.024;2023-07-29T12:05:06;1.38;;;0.60;;
52458;SDS011;38372;52.902;6.024;2023-07-29T12:07:33;3.30;;;0.93;;
52458;SDS011;38372;52.902;6.024;2023-07-29T12:10:00;1.70;;;0.88;;
52458;SDS011;38372;52.902;6.024;2023-07-29T12:12:28;1.77;;;0.95;;
52458;SDS011;38372;52.902;6.024;2023-07-29T12:14:54;3.58;;;0.85;;
52458;SDS011;38372;52.902;6.024;2023-07-29T12:17:20;2.95;;;1.10;;
52458;SDS011;38372;52.902;6.024;2023-07-29T12:19:46;1.30;;;0.70;;
52458;SDS011;38372;52.902;6.024;2023-07-29T12:22:17;3.35;;;0.82;;
52458;SDS011;38372;52.902;6.024;2023-07-29T12:24:44;1.10;;;0.50;;
52458;SDS011;38372;52.902;6.024;2023-07-29T12:27:10;2.58;;;0.70;;
52458;SDS011;38372;52.902;6.024;2023-07-29T12:29:41;3.13;;;0.52;;
52458;SDS011;38372;52.902;6.024;2023-07-29T12:32:08;1.23;;;0.50;;
52458;SDS011;38372;52.902;6.024;2023-07-29T12:34:35;2.22;;;0.70;;
52458;SDS011;38372;52.902;6.024;2023-07-29T12:37:03;1.92;;;0.47;;
52458;SDS011;38372;52.902;6.024;2023-07-29T12:39:30;1.73;;;0.70;;
52458;SDS011;38372;52.902;6.024;2023-07-29T12:41:58;0.85;;;0.47;;
52458;SDS011;38372;52.902;6.024;2023-07-29T12:44:25;1.00;;;0.40;;
52458;SDS011;38372;52.902;6.024;2023-07-29T12:46:55;2.97;;;0.93;;
52458;SDS011;38372;52.902;6.024;2023-07-29T12:49:21;1.00;;;0.30;;
52458;SDS011;38372;52.902;6.024;2023-07-29T12:51:47;1.27;;;0.20;;
52458;SDS011;38372;52.902;6.024;2023-07-29T12:54:13;0.40;;;0.20;;
52458;SDS011;38372;52.902;6.024;2023-07-29T12:56:39;0.65;;;0.28;;
52458;SDS011;38372;52.902;6.024;2023-07-29T12:59:05;0.10;;;0.10;;
52458;SDS011;38372;52.902;6.024;2023-07-29T13:01:31;0.63;;;0.32;;
52458;SDS011;38372;52.902;6.024;2023-07-29T13:03:57;0.60;;;0.20;;
52458;SDS011;38372;52.902;6.024;2023-07-29T13:06:23;0.50;;;0.20;;
52458;SDS011;38372;52.902;6.024;2023-07-29T13:08:49;1.98;;;0.60;;
52458;SDS011;38372;52.902;6.024;2023-07-29T13:11:15;1.30;;;0.50;;
52458;SDS011;38372;52.902;6.024;2023-07-29T13:13:41;0.38;;;0.20;;
52458;SDS011;38372;52.902;6.024;2023-07-29T13:16:07;1.63;;;0.40;;
52458;SDS011;38372;52.902;6.024;2023-07-29T13:18:33;0.82;;;0.40;;
52458;SDS011;38372;52.902;6.024;2023-07-29T13:20:59;0.75;;;0.30;;
52458;SDS011;38372;52.902;6.024;2023-07-29T13:23:28;1.13;;;0.55;;
52458;SDS011;38372;52.902;6.024;2023-07-29T13:25:55;1.27;;;0.47;;
52458;SDS011;38372;52.902;6.024;2023-07-29T13:28:21;2.10;;;0.50;;
52458;SDS011;38372;52.902;6.024;2023-07-29T13:30:46;1.10;;;0.70;;
52458;SDS011;38372;52.902;6.024;2023-07-29T13:33:12;0.65;;;0.40;;
52458;SDS011;38372;52.902;6.024;2023-07-29T13:35:38;0.70;;;0.22;;
52458;SDS011;38372;52.902;6.024;2023-07-29T13:38:04;0.30;;;0.28;;
52458;SDS011;38372;52.902;6.024;2023-07-29T13:40:29;2.53;;;0.30;;
52458;SDS011;38372;52.902;6.024;2023-07-29T13:42:56;1.30;;;0.50;;
52458;SDS011;38372;52.902;6.024;2023-07-29T13:45:22;0.98;;;0.30;;
52458;SDS011;38372;52.902;6.024;2023-07-29T13:47:48;2.17;;;0.40;;
52458;SDS011;38372;52.902;6.024;2023-07-29T13:50:15;0.32;;;0.13;;
52458;SDS011;38372;52.902;6.024;2023-07-29T13:52:42;1.60;;;0.38;;
52458;SDS011;38372;52.902;6.024;2023-07-29T13:55:07;0.43;;;0.30;;
52458;SDS011;38372;52.902;6.024;2023-07-29T13:57:33;0.20;;;0.13;;
52458;SDS011;38372;52.902;6.024;2023-07-29T13:59:59;0.93;;;0.38;;
52458;SDS011;38372;52.902;6.024;2023-07-29T14:02:25;0.38;;;0.15;;
52458;SDS011;38372;52.902;6.024;2023-07-29T14:04:56;1.02;;;0.30;;
52458;SDS011;38372;52.902;6.024;2023-07-29T14:07:21;0.88;;;0.40;;
52458;SDS011;38372;52.902;6.024;2023-07-29T14:09:47;0.40;;;0.13;;
52458;SDS011;38372;52.902;6.024;2023-07-29T14:12:13;0.80;;;0.20;;
52458;SDS011;38372;52.902;6.024;2023-07-29T14:14:41;0.57;;;0.30;;
52458;SDS011;38372;52.902;6.024;2023-07-29T14:17:07;0.52;;;0.20;;
52458;SDS011;38372;52.902;6.024;2023-07-29T14:19:36;1.33;;;0.57;;
52458;SDS011;38372;52.902;6.024;2023-07-29T14:22:02;0.70;;;0.43;;
52458;SDS011;38372;52.902;6.024;2023-07-29T14:24:28;0.95;;;0.30;;
52458;SDS011;38372;52.902;6.024;2023-07-29T14:26:54;0.52;;;0.30;;
52458;SDS011;38372;52.902;6.024;2023-07-29T14:29:20;0.95;;;0.32;;
52458;SDS011;38372;52.902;6.024;2023-07-29T14:31:45;1.00;;;0.38;;
52458;SDS011;38372;52.902;6.024;2023-07-29T14:34:11;0.47;;;0.20;;
52458;SDS011;38372;52.902;6.024;2023-07-29T14:36:37;2.08;;;0.47;;
52458;SDS011;38372;52.902;6.024;2023-07-29T14:39:03;0.17;;;0.10;;
52458;SDS011;38372;52.902;6.024;2023-07-29T14:41:29;0.77;;;0.22;;
52458;SDS011;38372;52.902;6.024;2023-07-29T14:43:56;2.08;;;0.47;;
52458;SDS011;38372;52.902;6.024;2023-07-29T14:46:21;0.30;;;0.25;;
52458;SDS011;38372;52.902;6.024;2023-07-29T14:48:47;1.38;;;0.20;;
52458;SDS011;38372;52.902;6.024;2023-07-29T14:51:14;0.20;;;0.10;;
52458;SDS011;38372;52.902;6.024;2023-07-29T14:53:39;0.50;;;0.10;;
52458;SDS011;38372;52.902;6.024;2023-07-29T14:56:05;1.42;;;0.30;;
52458;SDS011;38372;52.902;6.024;2023-07-29T14:58:31;0.77;;;0.30;;
52458;SDS011;38372;52.902;6.024;2023-07-29T15:00:57;2.38;;;0.30;;
52458;SDS011;38372;52.902;6.024;2023-07-29T15:03:23;0.03;;;0.03;;
52458;SDS011;38372;52.902;6.024;2023-07-29T15:05:49;0.38;;;0.30;;
52458;SDS011;38372;52.902;6.024;2023-07-29T15:08:15;0.35;;;0.10;;
52458;SDS011;38372;52.902;6.024;2023-07-29T15:10:45;0.05;;;0.03;;
52458;SDS011;38372;52.902;6.024;2023-07-29T15:13:11;0.60;;;0.20;;
52458;SDS011;38372;52.902;6.024;2023-07-29T15:15:40;0.50;;;0.20;;